Time;durP1;ratioP1;P1;durP2;ratioP2;P2;SDS_P1;SDS_P2;PMS_P1;PMS_P2;Temp;Humidity;BMP_temperature;BMP_pressure;BME280_temperature;BME280_humidity;BME280_pressure;Samples;Min_cycle;Max_cycle;Signal;HPM_P1;HPM_P2
2021/03/04 00:00:29;;;;;;;;;;;;;;;-1.25;94.89;99674.72;1833924;77;20174;-70
2021/03/04 00:02:57;;;;;;;;;;;;;;;-1.26;94.83;99665.24;1816556;78;20131;-70
2021/03/04 00:05:25;;;;;;;;;;;;;;;-1.28;94.81;99658.45;1830669;78;20158;-69
2021/03/04 00:07:53;;;;;;;;;;;;;;;-1.29;94.71;99658.92;1829077;77;20140;-70
2021/03/04 00:10:22;;;;;;;;;;;;;;;-1.30;94.84;99649.44;1844229;77;20171;-71
2021/03/04 00:12:49;;;;;;;;;;;;;;;-1.31;94.88;99648.22;1832443;78;20467;-70
2021/03/04 00:15:22;;;;;;;;;;;;;;;-1.35;95.21;99647.52;1840297;77;20219;-70
2021/03/04 00:17:49;;;;;;;;;;;;;;;-1.41;95.47;99643.46;1833156;78;20119;-71
2021/03/04 00:20:28;;;;;;;;;;;;;;;-1.45;96.07;99631.55;1821371;77;20158;-70
2021/03/04 00:22:56;;;;;;;;;;;;;;;-1.51;96.46;99637.05;1827093;78;20144;-70
2021/03/04 00:25:29;;;;;;;;;;;;;;;-1.51;97.06;99630.56;1826902;78;20159;-70
2021/03/04 00:27:57;;;;;;;;;;;;;;;-1.47;97.30;99635.15;1784436;78;20144;-70
2021/03/04 00:30:25;;;;;;;;;;;;;;;-1.40;97.92;99627.00;1834980;78;20136;-70
2021/03/04 00:32:53;;;;;;;;;;;;;;;-1.39;98.39;99613.09;1817587;78;20222;-70
2021/03/04 00:35:21;;;;;;;;;;;;;;;-1.35;98.57;99623.34;1788925;79;20136;-70
2021/03/04 00:37:49;;;;;;;;;;;;;;;-1.34;98.78;99619.84;1840013;77;20418;-70
2021/03/04 00:40:18;;;;;;;;;;;;;;;-1.30;99.06;99613.58;1795150;78;20176;-70
2021/03/04 00:42:45;;;;;;;;;;;;;;;-1.30;99.16;99613.11;1841499;77;20135;-70
2021/03/04 00:45:17;;;;;;;;;;;;;;;-1.26;99.34;99608.62;1830579;78;20155;-70
2021/03/04 00:47:46;;;;;;;;;;;;;;;-1.26;99.89;99595.64;1822204;77;20222;-70
2021/03/04 00:50:14;;;;;;;;;;;;;;;-1.25;100.00;99596.04;1841138;77;20261;-69
2021/03/04 00:52:42;;;;;;;;;;;;;;;-1.24;100.00;99599.00;1840068;77;20152;-70
2021/03/04 00:55:10;;;;;;;;;;;;;;;-1.21;100.00;99599.70;1838774;78;20119;-70
2021/03/04 00:57:37;;;;;;;;;;;;;;;-1.14;100.00;99597.65;1812083;78;20239;-69
2021/03/04 01:00:07;;;;;;;;;;;;;;;-1.13;100.00;99585.50;1840395;78;20223;-72
2021/03/04 01:02:35;;;;;;;;;;;;;;;-1.11;100.00;99576.72;1818458;78;20166;-69
2021/03/04 01:05:04;;;;;;;;;;;;;;;-1.06;100.00;99573.44;1839564;78;20230;-69
2021/03/04 01:07:32;;;;;;;;;;;;;;;-1.01;100.00;99570.59;1822742;77;20151;-70
2021/03/04 01:09:59;;;;;;;;;;;;;;;-0.99;100.00;99563.59;1824285;77;20120;-69
2021/03/04 01:12:27;;;;;;;;;;;;;;;-1.00;99.92;99565.33;1828603;77;20144;-70
2021/03/04 01:14:55;;;;;;;;;;;;;;;-1.02;100.00;99554.66;1819879;78;20135;-70
2021/03/04 01:17:23;;;;;;;;;;;;;;;-1.07;100.00;99540.59;1833056;78;20136;-70
2021/03/04 01:19:52;;;;;;;;;;;;;;;-1.07;100.00;99538.47;1829628;78;20124;-69
2021/03/04 01:22:19;;;;;;;;;;;;;;;-1.08;100.00;99529.02;1811275;78;20120;-70
2021/03/04 01:24:46;;;;;;;;;;;;;;;-1.06;100.00;99533.20;1842724;78;20155;-69
2021/03/04 01:27:14;;;;;;;;;;;;;;;-1.06;100.00;99527.19;1818266;77;20179;-70
2021/03/04 01:29:41;;;;;;;;;;;;;;;-1.05;100.00;99515.86;1835606;77;20411;-70
2021/03/04 01:32:08;;;;;;;;;;;;;;;-1.05;100.00;99523.65;1835812;77;20155;-69
2021/03/04 01:34:36;;;;;;;;;;;;;;;-1.09;100.00;99522.97;1819651;78;20402;-69
2021/03/04 01:37:04;;;;;;;;;;;;;;;-1.14;100.00;99518.48;1822332;78;20159;-70
2021/03/04 01:39:31;;;;;;;;;;;;;;;-1.13;100.00;99518.02;1818386;77;20261;-70
2021/03/04 01:41:59;;;;;;;;;;;;;;;-1.10;100.00;99510.92;1818296;77;20119;-69
2021/03/04 01:44:28;;;;;;;;;;;;;;;-1.11;100.00;99502.74;1816942;78;20139;-69
2021/03/04 01:46:56;;;;;;;;;;;;;;;-1.02;100.00;99510.53;1834638;77;20128;-69
2021/03/04 01:49:25;;;;;;;;;;;;;;;-0.97;100.00;99505.95;1842447;78;20253;-69
2021/03/04 01:51:52;;;;;;;;;;;;;;;-0.96;100.00;99497.69;1816131;78;20415;-70
2021/03/04 01:54:20;;;;;;;;;;;;;;;-0.97;100.00;99494.27;1832425;78;20226;-69
2021/03/04 01:56:46;;;;;;;;;;;;;;;-0.96;100.00;99489.90;1814635;78;20160;-69
2021/03/04 01:59:13;;;;;;;;;;;;;;;-0.90;100.00;99493.47;1819801;78;20167;-69
2021/03/04 02:01:41;;;;;;;;;;;;;;;-0.88;100.00;99492.48;1783143;78;20147;-69
2021/03/04 02:04:09;;;;;;;;;;;;;;;-0.84;100.00;99481.02;1847452;77;20158;-69
2021/03/04 02:07:00;;;;;;;;;;;;;;;-0.81;100.00;99474.81;1839569;77;20131;-69
2021/03/04 02:09:28;;;;;;;;;;;;;;;-0.80;100.00;99468.71;1845808;77;20186;-69
2021/03/04 02:11:57;;;;;;;;;;;;;;;-0.72;100.00;99466.53;1831122;77;20246;-69
2021/03/04 02:14:30;;;;;;;;;;;;;;;-0.66;100.00;99457.58;1834350;77;20135;-69
2021/03/04 02:17:02;;;;;;;;;;;;;;;-0.63;100.00;99454.83;1840139;78;20422;-69
2021/03/04 02:19:33;;;;;;;;;;;;;;;-0.62;100.00;99456.05;1815609;77;20143;-69
2021/03/04 02:22:11;;;;;;;;;;;;;;;-0.55;100.00;99457.00;1806205;78;20704;-69
2021/03/04 02:24:54;;;;;;;;;;;;;;;-0.53;100.00;99448.20;1842042;77;20226;-69
2021/03/04 02:27:24;;;;;;;;;;;;;;;-0.53;100.00;99449.96;1830956;78;20140;-69
2021/03/04 02:30:08;;;;;;;;;;;;;;;-0.57;100.00;99444.56;1832842;77;20150;-69
2021/03/04 02:32:39;;;;;;;;;;;;;;;-0.57;100.00;99436.30;1840716;78;20486;-69
2021/03/04 02:35:16;;;;;;;;;;;;;;;-0.52;100.00;99438.19;1815994;77;20143;-69
2021/03/04 02:37:46;;;;;;;;;;;;;;;-0.46;100.00;99433.12;1838788;77;20179;-69
2021/03/04 02:40:13;;;;;;;;;;;;;;;-0.40;100.00;99426.28;1838219;77;20441;-69
2021/03/04 02:42:41;;;;;;;;;;;;;;;-0.36;100.00;99417.39;1830824;77;20150;-69
2021/03/04 02:45:10;;;;;;;;;;;;;;;-0.34;100.00;99411.64;1840259;77;20124;-69
2021/03/04 02:47:39;;;;;;;;;;;;;;;-0.33;100.00;99402.94;1839497;77;20119;-69
2021/03/04 02:50:09;;;;;;;;;;;;;;;-0.31;100.00;99397.66;1820639;78;20139;-69
2021/03/04 02:52:36;;;;;;;;;;;;;;;-0.33;100.00;99397.73;1816783;78;20182;-69
2021/03/04 02:55:06;;;;;;;;;;;;;;;-0.32;100.00;99393.38;1810539;78;20139;-69
2021/03/04 02:57:34;;;;;;;;;;;;;;;-0.31;100.00;99391.98;1829482;77;20250;-69
2021/03/04 03:00:04;;;;;;;;;;;;;;;-0.28;100.00;99387.07;1823853;77;20147;-69
2021/03/04 03:02:32;;;;;;;;;;;;;;;-0.23;100.00;99381.16;1826213;77;20140;-69
2021/03/04 03:05:00;;;;;;;;;;;;;;;-0.20;100.00;99372.73;1842290;77;20152;-69
2021/03/04 03:07:28;;;;;;;;;;;;;;;-0.17;100.00;99365.67;1840207;77;20206;-69
2021/03/04 03:09:55;;;;;;;;;;;;;;;-0.16;100.00;99364.30;1839943;77;20411;-69
2021/03/04 03:12:22;;;;;;;;;;;;;;;-0.14;100.00;99356.41;1828112;78;20199;-69
2021/03/04 03:14:49;;;;;;;;;;;;;;;-0.08;100.00;99356.05;1826994;78;20139;-69
2021/03/04 03:17:18;;;;;;;;;;;;;;;-0.04;100.00;99344.55;1833880;78;20134;-69
2021/03/04 03:19:47;;;;;;;;;;;;;;;-0.04;100.00;99342.80;1794561;77;20141;-69
2021/03/04 03:22:14;;;;;;;;;;;;;;;-0.04;100.00;99340.64;1826018;77;20128;-69
2021/03/04 03:24:42;;;;;;;;;;;;;;;-0.03;100.00;99337.13;1843552;78;20140;-69
2021/03/04 03:27:09;;;;;;;;;;;;;;;0.01;100.00;99336.02;1825171;77;20124;-69
2021/03/04 03:29:37;;;;;;;;;;;;;;;0.05;100.00;99337.51;1811507;78;20247;-69
2021/03/04 03:32:05;;;;;;;;;;;;;;;0.05;100.00;99327.58;1816874;78;20206;-69
2021/03/04 03:34:33;;;;;;;;;;;;;;;0.06;100.00;99333.17;1838257;77;20155;-69
2021/03/04 03:37:00;;;;;;;;;;;;;;;0.07;100.00;99325.25;1828500;77;20135;-69
2021/03/04 03:39:27;;;;;;;;;;;;;;;0.05;100.00;99312.81;1846178;77;20482;-69
2021/03/04 03:41:55;;;;;;;;;;;;;;;0.05;100.00;99318.01;1829214;77;20136;-69
2021/03/04 03:44:22;;;;;;;;;;;;;;;0.08;100.00;99307.44;1832693;77;20131;-69
2021/03/04 03:46:50;;;;;;;;;;;;;;;0.11;100.00;99307.27;1838840;78;20159;-69
2021/03/04 03:49:18;;;;;;;;;;;;;;;0.08;100.00;99302.23;1833856;77;20210;-69
2021/03/04 03:51:45;;;;;;;;;;;;;;;0.08;100.00;99300.11;1827035;78;20266;-69
2021/03/04 03:54:12;;;;;;;;;;;;;;;0.08;100.00;99296.20;1826857;78;20218;-70
2021/03/04 03:56:40;;;;;;;;;;;;;;;0.10;100.00;99289.98;1838190;77;20540;-69
2021/03/04 03:59:07;;;;;;;;;;;;;;;0.13;100.00;99285.91;1831251;78;20230;-69
2021/03/04 04:01:35;;;;;;;;;;;;;;;0.12;100.00;99276.89;1836960;77;20147;-69
2021/03/04 04:04:03;;;;;;;;;;;;;;;0.12;100.00;99284.22;1825246;78;20414;-69
2021/03/04 04:06:33;;;;;;;;;;;;;;;0.10;100.00;99267.88;1835172;78;20403;-69
2021/03/04 04:09:00;;;;;;;;;;;;;;;0.10;100.00;99265.27;1839771;77;20135;-69
2021/03/04 04:11:29;;;;;;;;;;;;;;;0.09;100.00;99251.06;1811201;78;20409;-69
2021/03/04 04:13:57;;;;;;;;;;;;;;;0.10;100.00;99248.84;1842602;78;20423;-69
2021/03/04 04:16:25;;;;;;;;;;;;;;;0.08;100.00;99245.03;1834760;77;20270;-69
2021/03/04 04:18:53;;;;;;;;;;;;;;;0.02;100.00;99233.70;1801243;78;20145;-69
2021/03/04 04:21:21;;;;;;;;;;;;;;;-0.06;100.00;99225.52;1848680;77;20229;-69
2021/03/04 04:23:48;;;;;;;;;;;;;;;-0.09;100.00;99216.62;1843320;78;20434;-69
2021/03/04 04:26:17;;;;;;;;;;;;;;;-0.11;100.00;99215.84;1827341;78;20155;-70
2021/03/04 04:28:44;;;;;;;;;;;;;;;-0.17;100.00;99210.55;1829670;77;20226;-69
2021/03/04 04:31:11;;;;;;;;;;;;;;;-0.23;100.00;99216.13;1829967;78;20119;-69
2021/03/04 04:33:40;;;;;;;;;;;;;;;-0.29;100.00;99215.20;1832999;78;20221;-69
2021/03/04 04:36:08;;;;;;;;;;;;;;;-0.34;100.00;99199.03;1836798;78;20183;-69
2021/03/04 04:38:36;;;;;;;;;;;;;;;-0.36;100.00;99193.92;1817048;78;20236;-69
2021/03/04 04:41:03;;;;;;;;;;;;;;;-0.38;100.00;99185.85;1833636;77;20135;-70
2021/03/04 04:43:32;;;;;;;;;;;;;;;-0.42;100.00;99192.52;1845762;77;20155;-70
2021/03/04 04:46:00;;;;;;;;;;;;;;;-0.47;100.00;99193.28;1835366;77;20227;-71
2021/03/04 04:48:27;;;;;;;;;;;;;;;-0.50;100.00;99192.62;1829199;78;20406;-70
2021/03/04 04:50:57;;;;;;;;;;;;;;;-0.48;100.00;99195.48;1845657;77;20418;-70
2021/03/04 04:53:24;;;;;;;;;;;;;;;-0.47;100.00;99176.83;1788449;77;20154;-70
2021/03/04 04:55:52;;;;;;;;;;;;;;;-0.49;100.00;99180.81;1810805;78;20647;-70
2021/03/04 04:58:19;;;;;;;;;;;;;;;-0.49;100.00;99187.78;1838907;77;20127;-69
2021/03/04 05:00:47;;;;;;;;;;;;;;;-0.48;100.00;99172.58;1841820;78;20132;-70
2021/03/04 05:03:14;;;;;;;;;;;;;;;-0.42;100.00;99173.03;1827749;78;20143;-69
2021/03/04 05:05:41;;;;;;;;;;;;;;;-0.37;100.00;99171.92;1836945;77;20147;-71
2021/03/04 05:08:09;;;;;;;;;;;;;;;-0.36;100.00;99173.13;1819875;78;20134;-71
2021/03/04 05:10:36;;;;;;;;;;;;;;;-0.33;100.00;99166.94;1842598;77;20151;-71
2021/03/04 05:13:03;;;;;;;;;;;;;;;-0.31;100.00;99165.91;1811479;78;20226;-71
2021/03/04 05:15:30;;;;;;;;;;;;;;;-0.22;100.00;99158.03;1811584;78;20222;-71
2021/03/04 05:17:57;;;;;;;;;;;;;;;-0.14;100.00;99149.30;1832562;77;20135;-71
2021/03/04 05:20:25;;;;;;;;;;;;;;;-0.04;100.00;99146.97;1821552;78;20292;-71
2021/03/04 05:22:53;;;;;;;;;;;;;;;0.12;100.00;99142.97;1822244;78;20167;-71
2021/03/04 05:25:20;;;;;;;;;;;;;;;0.49;100.00;99135.47;1814784;78;20218;-72
2021/03/04 05:27:47;;;;;;;;;;;;;;;1.07;97.45;99132.99;1818144;78;20223;-72
2021/03/04 05:30:15;;;;;;;;;;;;;;;1.74;93.50;99135.44;1836291;78;20144;-72
2021/03/04 05:32:43;;;;;;;;;;;;;;;2.46;88.39;99134.76;1816725;78;20135;-72
2021/03/04 05:35:11;;;;;;;;;;;;;;;3.21;83.00;99136.75;1811305;78;20159;-72
2021/03/04 05:37:39;;;;;;;;;;;;;;;3.87;77.62;99132.58;1826612;78;20139;-72
2021/03/04 05:40:09;;;;;;;;;;;;;;;4.49;74.06;99125.14;1837614;78;20230;-72
2021/03/04 05:42:36;;;;;;;;;;;;;;;5.16;70.99;99125.37;1832610;77;20238;-74
2021/03/04 05:45:05;;;;;;;;;;;;;;;5.84;67.55;99118.36;1811403;78;20238;-74
2021/03/04 05:47:33;;;;;;;;;;;;;;;6.45;64.38;99108.27;1843226;77;20265;-74
2021/03/04 05:50:03;;;;;;;;;;;;;;;7.00;61.24;99099.39;1840871;78;20147;-73
2021/03/04 05:52:34;;;;;;;;;;;;;;;7.51;59.39;99096.55;1826921;78;20241;-74
2021/03/04 05:55:05;;;;;;;;;;;;;;;7.89;57.43;99100.86;1816566;77;20269;-73
2021/03/04 05:57:33;;;;;;;;;;;;;;;8.41;55.66;99099.48;1835407;77;20470;-72
2021/03/04 06:00:01;;;;;;;;;;;;;;;8.93;52.89;99091.78;1822459;77;20226;-71
2021/03/04 06:02:31;;;;;;;;;;;;;;;9.27;51.90;99097.64;1835518;78;20418;-73
2021/03/04 06:04:58;;;;;;;;;;;;;;;9.59;50.99;99097.02;1808441;78;20127;-74
2021/03/04 06:07:26;;;;;;;;;;;;;;;10.03;50.20;99082.91;1811524;78;20223;-72
2021/03/04 06:09:55;;;;;;;;;;;;;;;10.55;48.52;99085.41;1832436;78;20242;-74
2021/03/04 06:12:22;;;;;;;;;;;;;;;11.07;47.52;99084.27;1807389;78;20178;-73
2021/03/04 06:14:50;;;;;;;;;;;;;;;11.65;45.80;99088.98;1810706;78;20241;-73
2021/03/04 06:17:18;;;;;;;;;;;;;;;12.18;44.20;99084.06;1834023;77;20136;-73
2021/03/04 06:20:03;;;;;;;;;;;;;;;12.57;43.38;99076.55;1813066;77;20164;-73
2021/03/04 06:22:32;;;;;;;;;;;;;;;12.99;41.97;99068.61;1834057;78;20402;-72
2021/03/04 06:25:01;;;;;;;;;;;;;;;13.33;40.81;99077.97;1825141;78;20139;-74
2021/03/04 06:27:30;;;;;;;;;;;;;;;13.53;40.34;99069.80;1821443;78;20218;-73
2021/03/04 06:29:58;;;;;;;;;;;;;;;13.85;39.33;99057.67;1819647;77;20146;-72
2021/03/04 06:32:28;;;;;;;;;;;;;;;14.14;39.05;99052.84;1820321;78;20197;-70
2021/03/04 06:35:07;;;;;;;;;;;;;;;14.36;38.39;99047.02;1801195;78;20135;-71
2021/03/04 06:37:37;;;;;;;;;;;;;;;14.59;37.46;99038.92;1789262;79;20228;-72
2021/03/04 06:40:07;;;;;;;;;;;;;;;14.74;37.00;99030.88;1804911;77;20118;-69
2021/03/04 06:42:39;;;;;;;;;;;;;;;14.90;36.47;99027.93;1789762;78;20287;-72
2021/03/04 06:45:07;;;;;;;;;;;;;;;15.08;36.22;99015.48;1750154;79;20147;-69
2021/03/04 06:47:35;;;;;;;;;;;;;;;15.20;35.97;99016.29;1768013;80;20231;-69
2021/03/04 06:50:04;;;;;;;;;;;;;;;15.42;35.25;99015.20;1781619;79;20272;-72
2021/03/04 06:52:33;;;;;;;;;;;;;;;15.82;34.96;99009.30;1775450;78;20295;-72
2021/03/04 06:55:10;;;;;;;;;;;;;;;16.28;34.18;99013.98;1816584;77;20155;-69
2021/03/04 06:57:37;;;;;;;;;;;;;;;16.65;33.50;99013.95;1818880;77;20147;-70
2021/03/04 07:00:18;;;;;;;;;;;;;;;17.11;32.87;99005.66;1838195;77;20198;-72
2021/03/04 07:02:52;;;;;;;;;;;;;;;17.41;31.98;98994.52;1842325;77;20139;-70
2021/03/04 07:05:21;;;;;;;;;;;;;;;17.72;31.29;98993.00;1831879;77;20119;-71
2021/03/04 07:07:51;;;;;;;;;;;;;;;17.81;31.20;98989.88;1837408;77;20406;-71
2021/03/04 07:10:19;;;;;;;;;;;;;;;18.11;30.87;98990.70;1838954;77;20643;-71
2021/03/04 07:12:47;;;;;;;;;;;;;;;18.64;30.37;98981.51;1810261;78;20423;-70
2021/03/04 07:15:16;;;;;;;;;;;;;;;19.06;29.34;98987.19;1808568;78;20153;-71
2021/03/04 07:17:45;;;;;;;;;;;;;;;19.43;28.59;98977.83;1770884;78;20224;-69
2021/03/04 07:20:18;;;;;;;;;;;;;;;19.44;28.21;98979.48;1785571;79;20412;-72
2021/03/04 07:22:48;;;;;;;;;;;;;;;19.48;28.45;98976.65;1799352;78;20188;-75
2021/03/04 07:25:15;;;;;;;;;;;;;;;19.69;27.79;98967.33;1808519;78;20286;-76
2021/03/04 07:27:43;;;;;;;;;;;;;;;19.88;27.72;98971.36;1821262;77;20186;-73
2021/03/04 07:30:11;;;;;;;;;;;;;;;20.16;27.37;98968.09;1803802;78;20413;-72
2021/03/04 07:32:40;;;;;;;;;;;;;;;20.45;27.05;98960.27;1801637;79;20133;-72
2021/03/04 07:35:12;;;;;;;;;;;;;;;20.72;26.18;98957.50;1763624;79;20155;-72
2021/03/04 07:37:42;;;;;;;;;;;;;;;20.78;26.27;98940.97;1813840;78;20154;-72
2021/03/04 07:40:12;;;;;;;;;;;;;;;21.08;25.73;98944.89;1820752;78;20249;-70
2021/03/04 07:42:40;;;;;;;;;;;;;;;21.17;25.57;98931.08;1842132;78;20399;-73
2021/03/04 07:45:15;;;;;;;;;;;;;;;21.34;25.47;98933.36;1837602;78;20135;-73
2021/03/04 07:47:42;;;;;;;;;;;;;;;21.74;24.38;98926.37;1827494;78;20139;-71
2021/03/04 07:50:20;;;;;;;;;;;;;;;21.80;24.65;98914.66;1827721;78;20151;-72
2021/03/04 07:52:48;;;;;;;;;;;;;;;21.90;24.45;98924.25;1817303;78;20403;-73
2021/03/04 07:55:20;;;;;;;;;;;;;;;22.06;24.09;98913.25;1764232;79;20222;-74
2021/03/04 07:57:48;;;;;;;;;;;;;;;22.09;23.97;98904.16;1788146;79;20148;-71
2021/03/04 08:00:16;;;;;;;;;;;;;;;22.04;24.01;98904.61;1810891;79;20238;-74
2021/03/04 08:02:44;;;;;;;;;;;;;;;21.91;24.14;98901.14;1767503;78;20186;-74
2021/03/04 08:05:13;;;;;;;;;;;;;;;22.09;23.67;98904.70;1831631;78;20116;-72
2021/03/04 08:07:44;;;;;;;;;;;;;;;22.21;23.93;98893.86;1809301;78;20142;-71
2021/03/04 08:10:16;;;;;;;;;;;;;;;22.44;23.64;98887.53;1791219;78;20146;-72
2021/03/04 08:12:51;;;;;;;;;;;;;;;22.43;23.59;98876.48;1761623;77;20230;-73
2021/03/04 08:15:21;;;;;;;;;;;;;;;22.36;23.31;98887.95;1806935;79;20220;-73
2021/03/04 08:17:49;;;;;;;;;;;;;;;22.24;23.55;98874.00;1818683;78;20132;-74
2021/03/04 08:20:18;;;;;;;;;;;;;;;22.47;23.42;98864.16;1822941;78;20142;-72
2021/03/04 08:22:56;;;;;;;;;;;;;;;22.81;23.34;98862.77;1799728;79;20409;-72
2021/03/04 08:25:29;;;;;;;;;;;;;;;23.07;22.76;98872.05;1808828;78;20136;-73
2021/03/04 08:27:58;;;;;;;;;;;;;;;23.07;22.83;98859.91;1804967;78;20142;-72
2021/03/04 08:30:32;;;;;;;;;;;;;;;22.83;23.05;98861.98;1804096;79;20536;-72
2021/03/04 08:33:08;;;;;;;;;;;;;;;22.73;23.17;98857.81;1803837;79;20241;-73
2021/03/04 08:35:37;;;;;;;;;;;;;;;22.64;23.35;98846.09;1757071;80;20230;-74
2021/03/04 08:38:06;;;;;;;;;;;;;;;22.39;23.29;98843.84;1747820;81;20247;-75
2021/03/04 08:40:45;;;;;;;;;;;;;;;21.88;23.86;98841.09;1752343;80;20196;-73
2021/03/04 08:43:16;;;;;;;;;;;;;;;21.40;24.34;98838.81;1745391;80;20177;-73
2021/03/04 08:45:44;;;;;;;;;;;;;;;21.08;24.86;98833.34;1776626;80;20314;-74
2021/03/04 08:48:13;;;;;;;;;;;;;;;20.72;24.99;98835.27;1833035;77;20215;-73
2021/03/04 08:50:45;;;;;;;;;;;;;;;20.27;25.90;98838.47;1785303;78;20177;-73
2021/03/04 08:53:15;;;;;;;;;;;;;;;20.22;25.97;98834.34;1816176;78;20627;-76
2021/03/04 08:55:56;;;;;;;;;;;;;;;20.05;26.02;98827.99;1841663;78;20427;-71
2021/03/04 08:58:25;;;;;;;;;;;;;;;20.09;26.34;98820.61;1832434;77;20216;-75
2021/03/04 09:01:00;;;;;;;;;;;;;;;20.55;25.71;98826.23;1812480;78;20195;-74
2021/03/04 09:03:29;;;;;;;;;;;;;;;20.77;25.50;98821.12;1790840;79;20225;-71
2021/03/04 09:06:06;;;;;;;;;;;;;;;20.73;25.44;98807.34;1799696;77;20143;-76
2021/03/04 09:08:39;;;;;;;;;;;;;;;20.69;25.47;98813.43;1810324;78;20143;-71
2021/03/04 09:11:08;;;;;;;;;;;;;;;20.63;25.49;98809.81;1833238;77;20258;-70
2021/03/04 09:13:36;;;;;;;;;;;;;;;20.67;25.73;98796.73;1789028;77;20508;-79
2021/03/04 09:16:07;;;;;;;;;;;;;;;20.62;25.57;98790.70;1783640;77;20139;-77
2021/03/04 09:18:45;;;;;;;;;;;;;;;20.55;25.78;98784.61;1810718;77;20524;-80
2021/03/04 09:21:13;;;;;;;;;;;;;;;20.41;25.98;98771.16;1797792;79;20389;-74
2021/03/04 09:23:42;;;;;;;;;;;;;;;20.27;26.02;98774.05;1840731;77;20194;-78
2021/03/04 09:26:09;;;;;;;;;;;;;;;19.91;26.39;98765.16;1819299;78;20120;-75
2021/03/04 09:28:45;;;;;;;;;;;;;;;19.66;26.92;98767.19;1791198;79;20126;-74
2021/03/04 09:31:11;;;;;;;;;;;;;;;19.83;26.73;98772.73;1806886;78;20433;-72
2021/03/04 09:33:41;;;;;;;;;;;;;;;20.13;26.41;98764.61;1794964;78;20234;-75
2021/03/04 09:36:10;;;;;;;;;;;;;;;20.67;25.85;98768.00;1773746;78;20131;-78
2021/03/04 09:38:38;;;;;;;;;;;;;;;21.19;25.04;98764.48;1804142;78;20335;-77
2021/03/04 09:41:09;;;;;;;;;;;;;;;21.59;24.37;98750.17;1812574;78;20139;-74
2021/03/04 09:43:46;;;;;;;;;;;;;;;21.97;24.20;98751.87;1798365;77;20221;-79
2021/03/04 09:46:31;;;;;;;;;;;;;;;22.32;23.69;98744.09;1812310;78;20139;-81
2021/03/04 09:49:15;;;;;;;;;;;;;;;22.62;23.25;98749.88;1830629;78;20116;-79
2021/03/04 09:51:45;;;;;;;;;;;;;;;22.70;22.86;98745.13;1799902;77;20611;-80
2021/03/04 09:54:23;;;;;;;;;;;;;;;22.82;22.82;98741.79;1821942;78;20124;-83
2021/03/04 09:57:01;;;;;;;;;;;;;;;22.94;22.90;98742.45;1816754;77;20161;-81
2021/03/04 09:59:29;;;;;;;;;;;;;;;23.12;22.81;98729.22;1810590;78;20422;-75
2021/03/04 10:01:56;;;;;;;;;;;;;;;23.32;22.27;98715.11;1812863;78;20143;-80
2021/03/04 10:04:27;;;;;;;;;;;;;;;23.47;22.10;98710.95;1802062;78;20148;-77
2021/03/04 10:06:54;;;;;;;;;;;;;;;23.58;22.12;98711.31;1830034;77;20135;-83
2021/03/04 10:09:25;;;;;;;;;;;;;;;23.91;21.78;98708.11;1793675;78;20269;-77
2021/03/04 10:11:52;;;;;;;;;;;;;;;24.05;21.50;98703.86;1799072;79;20169;-80
2021/03/04 10:14:20;;;;;;;;;;;;;;;24.01;21.37;98695.47;1767695;80;20241;-79
2021/03/04 10:16:54;;;;;;;;;;;;;;;23.96;21.34;98690.57;1786492;79;20290;-80
2021/03/04 10:19:23;;;;;;;;;;;;;;;23.91;21.70;98699.47;1807696;79;20149;-81
2021/03/04 10:21:50;;;;;;;;;;;;;;;23.99;21.66;98694.12;1791833;79;20188;-79
2021/03/04 10:24:18;;;;;;;;;;;;;;;24.12;21.13;98684.75;1777624;79;20493;-78
2021/03/04 10:26:45;;;;;;;;;;;;;;;24.01;21.44;98677.92;1777573;79;20147;-76
2021/03/04 10:29:13;;;;;;;;;;;;;;;24.09;21.19;98667.19;1796702;79;20137;-80
2021/03/04 10:31:40;;;;;;;;;;;;;;;24.12;21.32;98669.36;1804226;79;20177;-75
2021/03/04 10:34:08;;;;;;;;;;;;;;;24.18;20.81;98656.69;1773981;79;20173;-81
2021/03/04 10:36:36;;;;;;;;;;;;;;;23.91;21.13;98654.12;1785763;79;20146;-80
2021/03/04 10:39:03;;;;;;;;;;;;;;;23.68;21.41;98648.52;1803336;79;20145;-83
2021/03/04 10:41:31;;;;;;;;;;;;;;;23.52;21.94;98646.25;1771071;79;20140;-76
2021/03/04 10:43:58;;;;;;;;;;;;;;;23.84;21.57;98643.53;1789902;79;20154;-81
2021/03/04 10:46:30;;;;;;;;;;;;;;;23.83;21.25;98635.18;1802375;79;20399;-77
2021/03/04 10:48:57;;;;;;;;;;;;;;;23.59;21.33;98631.47;1808090;79;20154;-80
2021/03/04 10:51:25;;;;;;;;;;;;;;;23.38;21.66;98625.11;1793888;79;20188;-78
2021/03/04 10:53:52;;;;;;;;;;;;;;;23.38;21.81;98622.92;1807742;79;20301;-79
2021/03/04 10:56:19;;;;;;;;;;;;;;;23.27;21.90;98612.61;1806512;79;20260;-83
2021/03/04 10:58:47;;;;;;;;;;;;;;;22.96;22.17;98606.89;1766999;80;20139;-79
2021/03/04 11:01:15;;;;;;;;;;;;;;;22.57;22.31;98600.84;1801005;79;20158;-73
2021/03/04 11:03:43;;;;;;;;;;;;;;;22.32;22.74;98597.33;1784649;79;20189;-78
2021/03/04 11:06:13;;;;;;;;;;;;;;;22.10;22.92;98592.71;1824480;78;20127;-74
2021/03/04 11:08:41;;;;;;;;;;;;;;;21.72;23.29;98591.67;1826794;77;20207;-71
2021/03/04 11:11:08;;;;;;;;;;;;;;;20.86;24.50;98581.13;1822344;77;20623;-73
2021/03/04 11:13:35;;;;;;;;;;;;;;;20.24;25.32;98592.55;1828847;77;20132;-75
2021/03/04 11:16:03;;;;;;;;;;;;;;;19.80;26.14;98585.44;1816450;77;20124;-74
2021/03/04 11:18:32;;;;;;;;;;;;;;;19.51;26.65;98595.50;1819412;77;20178;-70
2021/03/04 11:20:59;;;;;;;;;;;;;;;19.25;27.03;98602.64;1816262;78;20190;-72
2021/03/04 11:23:27;;;;;;;;;;;;;;;18.82;27.18;98597.81;1810926;77;20135;-72
2021/03/04 11:25:56;;;;;;;;;;;;;;;18.21;27.96;98591.03;1839173;77;20565;-72
2021/03/04 11:28:23;;;;;;;;;;;;;;;17.65;28.88;98588.82;1831019;78;20139;-71
2021/03/04 11:30:51;;;;;;;;;;;;;;;17.18;29.46;98591.08;1837988;77;20217;-73
2021/03/04 11:33:20;;;;;;;;;;;;;;;16.81;30.21;98584.21;1842150;78;20446;-72
2021/03/04 11:35:47;;;;;;;;;;;;;;;16.47;31.01;98580.91;1840137;77;20214;-72
2021/03/04 11:38:16;;;;;;;;;;;;;;;16.01;31.74;98584.61;1812343;78;20128;-77
2021/03/04 11:40:43;;;;;;;;;;;;;;;15.79;32.55;98584.56;1810524;77;20274;-72
2021/03/04 11:43:12;;;;;;;;;;;;;;;15.64;33.17;98572.77;1841523;78;20430;-72
2021/03/04 11:45:40;;;;;;;;;;;;;;;15.46;33.34;98578.20;1841961;78;20187;-73
2021/03/04 11:48:08;;;;;;;;;;;;;;;15.40;33.74;98568.91;1843492;77;20171;-73
2021/03/04 11:50:35;;;;;;;;;;;;;;;15.24;34.13;98560.80;1815734;77;20159;-72
2021/03/04 11:53:02;;;;;;;;;;;;;;;14.97;34.68;98561.33;1824662;77;20139;-71
2021/03/04 11:55:30;;;;;;;;;;;;;;;14.66;35.24;98560.03;1793879;77;20157;-71
2021/03/04 11:57:57;;;;;;;;;;;;;;;14.32;35.93;98551.93;1838831;77;20155;-71
2021/03/04 12:00:27;;;;;;;;;;;;;;;14.06;36.39;98550.52;1824976;77;20296;-76
2021/03/04 12:02:55;;;;;;;;;;;;;;;13.93;37.09;98547.28;1825406;77;20194;-79
2021/03/04 12:05:22;;;;;;;;;;;;;;;13.83;37.48;98546.31;1841295;77;20226;-80
2021/03/04 12:07:50;;;;;;;;;;;;;;;13.59;37.65;98542.30;1835197;77;20285;-81
2021/03/04 12:10:23;;;;;;;;;;;;;;;13.40;38.37;98530.02;1840257;77;20568;-73
2021/03/04 12:12:48;;;;;;;;;;;;;;;13.29;38.92;98529.72;1843181;77;20678;-73
2021/03/04 12:15:16;;;;;;;;;;;;;;;13.15;39.06;98533.60;1831657;77;20190;-78
2021/03/04 12:17:44;;;;;;;;;;;;;;;12.98;39.23;98533.55;1831319;78;20308;-72
2021/03/04 12:20:13;;;;;;;;;;;;;;;12.74;39.69;98527.64;1836140;77;20186;-69
2021/03/04 12:22:40;;;;;;;;;;;;;;;12.56;40.21;98521.95;1840842;78;20195;-72
2021/03/04 12:25:08;;;;;;;;;;;;;;;12.46;40.77;98520.95;1836129;77;20178;-74
2021/03/04 12:27:36;;;;;;;;;;;;;;;12.33;41.04;98524.78;1819505;78;20182;-75
2021/03/04 12:30:06;;;;;;;;;;;;;;;12.14;41.43;98524.85;1818565;77;20203;-75
2021/03/04 12:32:36;;;;;;;;;;;;;;;11.94;41.83;98517.50;1827428;77;20139;-72
2021/03/04 12:35:05;;;;;;;;;;;;;;;11.81;42.25;98506.20;1820545;77;20198;-72
2021/03/04 12:37:33;;;;;;;;;;;;;;;11.76;42.52;98515.70;1841387;77;20338;-73
2021/03/04 12:40:01;;;;;;;;;;;;;;;11.75;42.77;98514.89;1836386;77;20501;-73
2021/03/04 12:42:28;;;;;;;;;;;;;;;11.72;43.11;98509.14;1837246;77;20257;-75
2021/03/04 12:44:56;;;;;;;;;;;;;;;11.69;43.17;98514.31;1835242;77;20179;-73
2021/03/04 12:47:23;;;;;;;;;;;;;;;11.63;43.24;98507.08;1830941;77;20194;-71
2021/03/04 12:49:51;;;;;;;;;;;;;;;11.64;43.62;98520.14;1829052;78;20135;-75
2021/03/04 12:52:20;;;;;;;;;;;;;;;11.64;43.57;98504.77;1841691;77;20504;-77
2021/03/04 12:54:48;;;;;;;;;;;;;;;11.71;43.59;98503.52;1829418;78;20481;-75